Hatsu Envoy — VSQL9 — position and weather

sailwx.info

Track history (hours):
 
Tides and Currents Weather Stations Pressure Air Temp Water Temp Dewpoint Dewpoint Depression Visibility Wind Speed Wind Dir Waves Ship Positions

Hatsu Envoy

Last reported at 2016-Aug-27 22:08 UTC. Time now 2016-Aug-28 22:23 UTC.
Position N 29°39' E 122°37'.

Type: Cargo ship. MMSI: 235414000.

Date/timePositionNaut miles runAvg speedWind from/ knotsBaromVisibWave heightAir tempDewpointWater temp
2016-Aug-27 22:08N 29°39' E 122°37'1016.9
2016-Aug-27 21:34N 29°42' E 122°26'1313.0
2016-Aug-27 20:33N 29°49' E 122°14'1111.0
2016-Aug-27 19:33N 29°54' E 122°02'0 0.2
2016-Aug-27 18:33N 29°54' E 122°02'0 0.0
2016-Aug-27 17:32N 29°54' E 122°02'0 0.0
2016-Aug-27 16:33N 29°54' E 122°02'0 0.0
2016-Aug-27 15:32N 29°54' E 122°02'0 0.0
2016-Aug-27 14:33N 29°54' E 122°02'0 0.0
2016-Aug-27 13:32N 29°54' E 122°02'0 0.0
2016-Aug-27 12:31N 29°54' E 122°02'0 0.0
2016-Aug-27 11:33N 29°54' E 122°02'0 0.0
2016-Aug-27 10:33N 29°54' E 122°02'0 0.0
2016-Aug-27 09:33N 29°54' E 122°02'0 0.0
2016-Aug-27 08:26N 29°54' E 122°02'0 0.0
2016-Aug-27 07:33N 29°54' E 122°02'0 0.0
2016-Aug-27 06:33N 29°54' E 122°02'0 0.0
2016-Aug-27 04:33N 29°54' E 122°02'1 1.2
2016-Aug-27 03:33N 29°54' E 122°03'8 7.7
2016-Aug-27 02:33N 29°52' E 122°12'1111.0
2016-Aug-27 01:34N 29°45' E 122°22'12 5.7
2016-Aug-26 23:29N 29°38' E 122°33'108 8.3
2016-Aug-26 10:33N 31°18' E 121°47'1111.1
2016-Aug-26 09:33N 31°23' E 121°35'0 0.3
2016-Aug-26 08:10N 31°23' E 121°34'0 0.0
2016-Aug-26 04:31N 31°23' E 121°34'0 0.0
2016-Aug-26 03:07N 31°23' E 121°34'0 0.0
2016-Aug-26 00:22N 31°23' E 121°34'0 0.0
2016-Aug-25 22:22N 31°23' E 121°34'0 0.0
2016-Aug-25 21:32N 31°23' E 121°34'1 1.4
2016-Aug-25 20:33N 31°23' E 121°36'10 9.7
2016-Aug-25 19:30N 31°18' E 121°47'40513.1
2016-Aug-24 12:33N 24°39' E 120°30'1817.8
2016-Aug-24 11:33N 24°23' E 120°21'2117.4
2016-Aug-24 10:22N 24°07' E 120°07'1416.8
2016-Aug-24 09:34N 23°54' E 120°03'2217.2
2016-Aug-24 08:17N 23°33' E 119°56'5915.7
2016-Aug-24 04:31N 22°35' E 120°11'8 8.6
2016-Aug-24 03:34N 22°33' E 120°19'0 0.3
2016-Aug-24 02:12N 22°34' E 120°19'0 0.0
2016-Aug-24 00:30N 22°34' E 120°19'0 0.0
2016-Aug-23 23:30N 22°34' E 120°19'0 0.0
2016-Aug-23 22:24N 22°34' E 120°19'0 0.1
2016-Aug-23 21:30N 22°34' E 120°19'0 0.1
2016-Aug-23 20:24N 22°34' E 120°19'0 0.0
2016-Aug-23 15:30N 22°34' E 120°19'0 0.0
2016-Aug-23 14:24N 22°34' E 120°19'0 0.0
2016-Aug-23 12:05N 22°34' E 120°19'0 0.0
2016-Aug-23 10:26N 22°34' E 120°19'0 0.1
2016-Aug-23 09:33N 22°34' E 120°19'5 4.6
2016-Aug-23 08:33N 22°32' E 120°14'9 8.9
2016-Aug-23 07:33N 22°31' E 120°05'1211.6
2016-Aug-23 06:33N 22°30' E 119°52'302 9.1
2016-Aug-21 21:22N 22°07' E 114°27'2212.4
2016-Aug-21 19:33N 22°18' E 114°06'3 0.4
2016-Aug-21 13:07N 22°20' E 114°08'0 0.1
2016-Aug-21 12:31N 22°20' E 114°08'0 0.0
2016-Aug-21 09:31N 22°20' E 114°08'0 0.0
2016-Aug-21 08:31N 22°20' E 114°08'0 0.1
2016-Aug-21 07:25N 22°20' E 114°08'0 0.5
2016-Aug-21 06:33N 22°20' E 114°07'17 8.4
2016-Aug-21 04:33N 22°08' E 114°21'13418.9
2016-Aug-20 21:29N 22°48' E 116°40'2720.3
2016-Aug-20 20:10N 23°01' E 117°05'1320.6
2016-Aug-20 19:33N 23°07' E 117°17'6819.8
2016-Aug-20 16:07N 23°46' E 118°17'1219.0
2016-Aug-20 15:30N 23°54' E 118°27'5518.3
2016-Aug-20 12:29N 24°35' E 119°08'1818.0
2016-Aug-20 11:28N 24°47' E 119°22'2518.0
2016-Aug-20 10:05N 25°03' E 119°43'3318.1
2016-Aug-20 08:15N 25°28' E 120°07'  
Track history (hours):
 
Tides and Currents Weather Stations Pressure Air Temp Water Temp Dewpoint Dewpoint Depression Visibility Wind Speed Wind Dir Waves Ship Positions

Hatsu Envoy

Last reported at 2016-Aug-27 22:08 UTC. Time now 2016-Aug-28 22:23 UTC.
Position N 29°39' E 122°37'.

Type: Cargo ship. MMSI: 235414000.

Date/timePositionNaut miles runAvg speedWind from/ knotsBaromVisibWave heightAir tempDewpointWater temp
2016-Aug-27 22:08N 29°39' E 122°37'1016.9
2016-Aug-27 21:34N 29°42' E 122°26'1313.0
2016-Aug-27 20:33N 29°49' E 122°14'1111.0
2016-Aug-27 19:33N 29°54' E 122°02'0 0.2
2016-Aug-27 18:33N 29°54' E 122°02'0 0.0
2016-Aug-27 17:32N 29°54' E 122°02'0 0.0
2016-Aug-27 16:33N 29°54' E 122°02'0 0.0
2016-Aug-27 15:32N 29°54' E 122°02'0 0.0
2016-Aug-27 14:33N 29°54' E 122°02'0 0.0
2016-Aug-27 13:32N 29°54' E 122°02'0 0.0
2016-Aug-27 12:31N 29°54' E 122°02'0 0.0
2016-Aug-27 11:33N 29°54' E 122°02'0 0.0
2016-Aug-27 10:33N 29°54' E 122°02'0 0.0
2016-Aug-27 09:33N 29°54' E 122°02'0 0.0
2016-Aug-27 08:26N 29°54' E 122°02'0 0.0
2016-Aug-27 07:33N 29°54' E 122°02'0 0.0
2016-Aug-27 06:33N 29°54' E 122°02'0 0.0
2016-Aug-27 04:33N 29°54' E 122°02'1 1.2
2016-Aug-27 03:33N 29°54' E 122°03'8 7.7
2016-Aug-27 02:33N 29°52' E 122°12'1111.0
2016-Aug-27 01:34N 29°45' E 122°22'12 5.7
2016-Aug-26 23:29N 29°38' E 122°33'108 8.3
2016-Aug-26 10:33N 31°18' E 121°47'1111.1
2016-Aug-26 09:33N 31°23' E 121°35'0 0.3
2016-Aug-26 08:10N 31°23' E 121°34'0 0.0
2016-Aug-26 04:31N 31°23' E 121°34'0 0.0
2016-Aug-26 03:07N 31°23' E 121°34'0 0.0
2016-Aug-26 00:22N 31°23' E 121°34'0 0.0
2016-Aug-25 22:22N 31°23' E 121°34'0 0.0
2016-Aug-25 21:32N 31°23' E 121°34'1 1.4
2016-Aug-25 20:33N 31°23' E 121°36'10 9.7
2016-Aug-25 19:30N 31°18' E 121°47'40513.1
2016-Aug-24 12:33N 24°39' E 120°30'1817.8
2016-Aug-24 11:33N 24°23' E 120°21'2117.4
2016-Aug-24 10:22N 24°07' E 120°07'1416.8
2016-Aug-24 09:34N 23°54' E 120°03'2217.2
2016-Aug-24 08:17N 23°33' E 119°56'5915.7
2016-Aug-24 04:31N 22°35' E 120°11'8 8.6
2016-Aug-24 03:34N 22°33' E 120°19'0 0.3
2016-Aug-24 02:12N 22°34' E 120°19'0 0.0
2016-Aug-24 00:30N 22°34' E 120°19'0 0.0
2016-Aug-23 23:30N 22°34' E 120°19'0 0.0
2016-Aug-23 22:24N 22°34' E 120°19'0 0.1
2016-Aug-23 21:30N 22°34' E 120°19'0 0.1
2016-Aug-23 20:24N 22°34' E 120°19'0 0.0
2016-Aug-23 15:30N 22°34' E 120°19'0 0.0
2016-Aug-23 14:24N 22°34' E 120°19'0 0.0
2016-Aug-23 12:05N 22°34' E 120°19'0 0.0
2016-Aug-23 10:26N 22°34' E 120°19'0 0.1
2016-Aug-23 09:33N 22°34' E 120°19'5 4.6
2016-Aug-23 08:33N 22°32' E 120°14'9 8.9
2016-Aug-23 07:33N 22°31' E 120°05'1211.6
2016-Aug-23 06:33N 22°30' E 119°52'302 9.1
2016-Aug-21 21:22N 22°07' E 114°27'2212.4
2016-Aug-21 19:33N 22°18' E 114°06'3 0.4
2016-Aug-21 13:07N 22°20' E 114°08'0 0.1
2016-Aug-21 12:31N 22°20' E 114°08'0 0.0
2016-Aug-21 09:31N 22°20' E 114°08'0 0.0
2016-Aug-21 08:31N 22°20' E 114°08'0 0.1
2016-Aug-21 07:25N 22°20' E 114°08'0 0.5
2016-Aug-21 06:33N 22°20' E 114°07'17 8.4
2016-Aug-21 04:33N 22°08' E 114°21'13418.9
2016-Aug-20 21:29N 22°48' E 116°40'2720.3
2016-Aug-20 20:10N 23°01' E 117°05'1320.6
2016-Aug-20 19:33N 23°07' E 117°17'6819.8
2016-Aug-20 16:07N 23°46' E 118°17'1219.0
2016-Aug-20 15:30N 23°54' E 118°27'5518.3
2016-Aug-20 12:29N 24°35' E 119°08'1818.0
2016-Aug-20 11:28N 24°47' E 119°22'2518.0
2016-Aug-20 10:05N 25°03' E 119°43'3318.1
2016-Aug-20 08:15N 25°28' E 120°07'  

Dump ship's entire track history